| time (UTC) | temp F | wind direction | speed knots | gust knots | rain 1hr in | rain 24hr in | rain mn in | humidity % | barometer mb |
| 20260906111732 | 76 | 240 | 0.0 | 0.9 | 0.00 | 0.00 | 0.00 | 74 | 1010.5 |
| 20260906104730 | 77 | 306 | 0.0 | 0.0 | 0.00 | 0.00 | 0.00 | 71 | 1010.5 |
| 20260906101730 | 78 | 331 | 0.9 | 2.6 | 0.00 | 0.00 | 0.00 | 69 | 1010.4 |
| 20260906094730 | 77 | 255 | 0.9 | 0.9 | 0.00 | 0.00 | 0.00 | 70 | 1010.3 |
| 20260906091730 | 77 | 242 | 0.0 | 0.9 | 0.00 | 0.00 | 0.00 | 70 | 1010.3 |
| 20260906084731 | 76 | 247 | 0.0 | 1.7 | 0.00 | 0.00 | 0.00 | 70 | 1010.2 |
| 20260906081730 | 78 | 256 | 0.0 | 0.9 | 0.00 | 0.00 | 0.00 | 65 | 1010.2 |
| 20260906071731 | 77 | 258 | 0.0 | 0.0 | 0.00 | 0.00 | 0.00 | 69 | 1010.2 |
| 20260906064731 | 77 | 251 | 0.0 | 0.9 | 0.00 | 0.00 | 0.00 | 71 | 1010.4 |
| 20260906061731 | 77 | 262 | 0.0 | 0.9 | 0.00 | 0.00 | 0.00 | 68 | 1010.3 |
| 20260906054731 | 76 | 257 | 0.0 | 0.9 | 0.00 | 0.00 | 0.00 | 70 | 1010.8 |
| 20260906051731 | 74 | 248 | 0.0 | 0.9 | 0.00 | 0.00 | 0.00 | 75 | 1011.3 |
| 20260906044731 | 75 | 244 | 0.0 | 0.9 | 0.00 | 0.00 | 0.00 | 76 | 1011.4 |
| 20260906041734 | 74 | 244 | 0.0 | 0.9 | 0.00 | 0.00 | 0.00 | 78 | 1011.4 |
| 20260906034733 | 74 | 246 | 0.0 | 0.9 | 0.00 | 0.00 | 0.00 | 79 | 1011.4 |
| 20260906031731 | 76 | 304 | 0.0 | 0.0 | 0.00 | 0.00 | 0.00 | 76 | 1011.5 |
| 20260906021731 | 77 | 261 | 0.0 | 0.9 | 0.00 | 0.00 | 0.00 | 73 | 1011.7 |
| 20260906014731 | 77 | 264 | 0.0 | 0.9 | 0.00 | 0.00 | 0.00 | 74 | 1011.3 |
| 20260906011731 | 77 | 308 | 0.0 | 0.9 | 0.00 | 0.00 | 0.00 | 78 | 1010.7 |
| 20260906004731 | 79 | 240 | 0.9 | 1.7 | 0.00 | 0.00 | 0.00 | 73 | 1010.3 |
| 20260905234731 | 79 | 346 | 0.0 | 0.9 | 0.00 | 0.00 | 0.00 | 74 | 1009.5 |
| 20260905231731 | 80 | 250 | 0.0 | 0.9 | 0.00 | 0.00 | 0.00 | 72 | 1010.1 |
| 20260905224731 | 82 | 250 | 0.0 | 0.9 | 0.00 | 0.00 | 0.00 | 69 | 1010.1 |
| 20260905221732 | 82 | 52 | 0.9 | 0.9 | 0.00 | 0.00 | 0.00 | 68 | 1010.4 |
| 20260905211732 | 83 | 319 | 2.6 | 5.2 | 0.00 | 0.00 | 0.00 | 67 | 1009.7 |
| 20260905204734 | 89 | 2 | 1.7 | 3.5 | 0.00 | 0.00 | 0.00 | 55 | 1009.9 |
| 20260905194732 | 89 | 352 | 1.7 | 3.5 | 0.00 | 0.00 | 0.00 | 52 | 1009.9 |
| 20260905191732 | 89 | 319 | 1.7 | 4.3 | 0.00 | 0.00 | 0.00 | 54 | 1010.4 |
| 20260905184734 | 91 | 51 | 1.7 | 2.6 | 0.00 | 0.00 | 0.00 | 54 | 1010.6 |
| 20260905174732 | 89 | 57 | 2.6 | 5.2 | 0.00 | 0.00 | 0.00 | 58 | 1011.3 |
| 20260905154734 | 87 | 70 | 2.6 | 5.2 | 0.00 | 0.00 | 0.00 | 65 | 1012.5 |
| 20260905151734 | 87 | 325 | 0.9 | 2.6 | 0.00 | 0.00 | 0.00 | 62 | 1012.6 |
| 20260905144732 | 88 | 322 | 0.0 | 0.9 | 0.00 | 0.00 | 0.00 | 65 | 1012.8 |
| 20260905141732 | 86 | 324 | 0.0 | 0.9 | 0.00 | 0.00 | 0.00 | 72 | 1013.0 |
| 20260905134732 | 85 | 324 | 0.0 | 0.9 | 0.00 | 0.00 | 0.00 | 72 | 1013.0 |
| 20260905131734 | 84 | 304 | 0.9 | 1.7 | 0.00 | 0.00 | 0.00 | 70 | 1013.3 |
| 20260905124732 | 82 | 250 | 0.0 | 0.9 | 0.00 | 0.00 | 0.00 | 75 | 1013.2 |
| 20260905121733 | 79 | 250 | 0.0 | 0.0 | 0.00 | 0.00 | 0.00 | 72 | 1013.2 |
| 20260905114733 | 79 | 249 | 0.0 | 0.9 | 0.00 | 0.00 | 0.00 | 72 | 1012.9 |